Invermere, Canada
Current Conditions -  °F | °C
As of 10:00 AM on Sunday 21 Dec 2014 (Local Time) from CYXC Reporting Station
Broken Clouds Broken Clouds  
Wind Chill: 30°   Ceiling: 7000
Heat Index: 30°   Visibility: 15mi
Dew Point: 30°   Wind: 0mph
Humidity: 100%   Direction: NA
Pressure: 29.47"   Gusts: NA
Location:  50.51°N, 116.03°W
Report Text: CYXC 211700Z 00000KT 15SM FEW005 FEW025 BKN070 BKN130 M01/M01 A2947 RMK SF1SC2AC4AC1 SF TR SLP009
Loading
Personal Weather Stations






























Interactive Weather Map New forecast layout! Learn more

10-Day Weather Forecast

Advertisements
Track Severe Weather on mobile